Lake Geneva, Wisconsin
Current Conditions -  °F | °C
As of 12:35 PM on Saturday 25 Oct 2014 (Local Time) from KBUU Reporting Station
Clear Clear  
Wind Chill: 65°   Ceiling: Unl
Heat Index: 65°   Visibility: 10mi
Dew Point: 37°   Wind: 14mph
Humidity: 34%   Direction: 300°WNW
Pressure: 29.92"   Gusts: 20mph
Location:  42.59°N, 88.44°W
Report Text: KBUU 251735Z AUTO 30012G17KT 10SM CLR 19/03 A2992 RMK AO2 T01860025
Loading
Personal Weather Stations






























Interactive Weather Map
Tropical Storm Tracking
New forecast layout! Learn more

10-Day Weather Forecast

Advertisements
Track Severe Weather on mobile